sensor_id;sensor_type;location;lat;lon;timestamp;pressure;altitude;pressure_sealevel;temperature;humidity
75418;BME280;63997;52.112;5.420;2023-07-29T00:00:00;100834.91;;;17.27;89.13
75418;BME280;63997;52.112;5.420;2023-07-29T00:02:27;100821.06;;;17.25;89.07
75418;BME280;63997;52.112;5.420;2023-07-29T00:04:57;100821.38;;;17.19;88.93
75418;BME280;63997;52.112;5.420;2023-07-29T00:07:23;100816.72;;;17.16;88.77
75418;BME280;63997;52.112;5.420;2023-07-29T00:09:49;100816.31;;;17.14;88.95
75418;BME280;63997;52.112;5.420;2023-07-29T00:12:16;100812.50;;;17.15;89.06
75418;BME280;63997;52.112;5.420;2023-07-29T00:14:42;100803.59;;;17.11;88.64
75418;BME280;63997;52.112;5.420;2023-07-29T00:17:10;100807.03;;;17.08;88.52
75418;BME280;63997;52.112;5.420;2023-07-29T00:19:37;100803.13;;;17.06;88.41
75418;BME280;63997;52.112;5.420;2023-07-29T00:22:04;100799.69;;;17.05;88.16
75418;BME280;63997;52.112;5.420;2023-07-29T00:24:31;100796.22;;;17.05;88.69
75418;BME280;63997;52.112;5.420;2023-07-29T00:26:57;100788.53;;;17.03;88.45
75418;BME280;63997;52.112;5.420;2023-07-29T00:29:24;100786.22;;;17.02;88.24
75418;BME280;63997;52.112;5.420;2023-07-29T00:31:55;100781.97;;;17.01;88.61
75418;BME280;63997;52.112;5.420;2023-07-29T00:34:24;100775.09;;;17.03;88.58
75418;BME280;63997;52.112;5.420;2023-07-29T00:36:52;100762.44;;;17.04;89.05
75418;BME280;63997;52.112;5.420;2023-07-29T00:39:19;100758.97;;;17.03;89.23
75418;BME280;63997;52.112;5.420;2023-07-29T00:41:47;100788.47;;;17.00;89.09
75418;BME280;63997;52.112;5.420;2023-07-29T00:44:16;100796.91;;;16.98;89.34
75418;BME280;63997;52.112;5.420;2023-07-29T00:46:44;100786.16;;;16.98;89.00
75418;BME280;63997;52.112;5.420;2023-07-29T00:49:13;100798.41;;;16.96;88.85
75418;BME280;63997;52.112;5.420;2023-07-29T00:51:45;100795.72;;;16.96;88.76
75418;BME280;63997;52.112;5.420;2023-07-29T00:54:14;100790.69;;;16.94;88.69
75418;BME280;63997;52.112;5.420;2023-07-29T00:56:43;100780.72;;;16.95;89.16
75418;BME280;63997;52.112;5.420;2023-07-29T00:59:13;100777.25;;;16.94;89.30
75418;BME280;63997;52.112;5.420;2023-07-29T01:01:42;100771.50;;;16.92;89.17
75418;BME280;63997;52.112;5.420;2023-07-29T01:04:12;100779.09;;;16.86;88.92
75418;BME280;63997;52.112;5.420;2023-07-29T01:12:49;100780.53;;;16.80;89.08
75418;BME280;63997;52.112;5.420;2023-07-29T01:15:33;100775.13;;;16.77;89.54
75418;BME280;63997;52.112;5.420;2023-07-29T01:18:10;100782.69;;;16.71;89.31
75418;BME280;63997;52.112;5.420;2023-07-29T01:20:40;100775.75;;;16.70;89.45
75418;BME280;63997;52.112;5.420;2023-07-29T01:23:13;100773.88;;;16.71;89.57
75418;BME280;63997;52.112;5.420;2023-07-29T01:25:44;100779.97;;;16.67;89.64
75418;BME280;63997;52.112;5.420;2023-07-29T01:28:11;100777.22;;;16.64;89.77
75418;BME280;63997;52.112;5.420;2023-07-29T01:30:42;100780.97;;;16.59;89.85
75418;BME280;63997;52.112;5.420;2023-07-29T01:33:16;100777.81;;;16.54;90.02
75418;BME280;63997;52.112;5.420;2023-07-29T01:36:06;100775.09;;;16.50;90.23
75418;BME280;63997;52.112;5.420;2023-07-29T01:38:38;100775.81;;;16.47;90.14
75418;BME280;63997;52.112;5.420;2023-07-29T01:41:07;100773.88;;;16.48;90.40
75418;BME280;63997;52.112;5.420;2023-07-29T01:43:34;100770.06;;;16.49;90.77
75418;BME280;63997;52.112;5.420;2023-07-29T01:46:06;100767.75;;;16.47;90.67
75418;BME280;63997;52.112;5.420;2023-07-29T01:48:33;100763.53;;;16.46;90.80
75418;BME280;63997;52.112;5.420;2023-07-29T01:51:04;100768.53;;;16.48;90.84
75418;BME280;63997;52.112;5.420;2023-07-29T01:53:33;100768.59;;;16.51;90.97
75418;BME280;63997;52.112;5.420;2023-07-29T01:56:01;100758.19;;;16.50;91.27
75418;BME280;63997;52.112;5.420;2023-07-29T01:58:31;100758.25;;;16.53;91.63
75418;BME280;63997;52.112;5.420;2023-07-29T02:01:02;100760.22;;;16.56;91.88
75418;BME280;63997;52.112;5.420;2023-07-29T02:03:32;100757.53;;;16.56;91.42
75418;BME280;63997;52.112;5.420;2023-07-29T02:06:01;100756.41;;;16.57;91.71
75418;BME280;63997;52.112;5.420;2023-07-29T02:08:30;100754.84;;;16.56;91.71
75418;BME280;63997;52.112;5.420;2023-07-29T02:10:59;100752.94;;;16.57;91.85
75418;BME280;63997;52.112;5.420;2023-07-29T02:13:25;100743.34;;;16.56;92.18
75418;BME280;63997;52.112;5.420;2023-07-29T02:15:51;100744.88;;;16.57;92.48
75418;BME280;63997;52.112;5.420;2023-07-29T02:18:18;100746.44;;;16.58;92.69
75418;BME280;63997;52.112;5.420;2023-07-29T02:20:45;100739.53;;;16.57;92.55
75418;BME280;63997;52.112;5.420;2023-07-29T02:23:16;100744.13;;;16.56;92.55
75418;BME280;63997;52.112;5.420;2023-07-29T02:25:46;100749.13;;;16.58;92.91
75418;BME280;63997;52.112;5.420;2023-07-29T02:28:15;100747.91;;;16.55;92.97
75418;BME280;63997;52.112;5.420;2023-07-29T02:30:45;100744.81;;;16.53;92.79
75418;BME280;63997;52.112;5.420;2023-07-29T02:33:13;100739.09;;;16.55;93.19
75418;BME280;63997;52.112;5.420;2023-07-29T02:35:40;100745.22;;;16.55;93.32
75418;BME280;63997;52.112;5.420;2023-07-29T02:38:06;100745.28;;;16.59;93.47
75418;BME280;63997;52.112;5.420;2023-07-29T02:40:33;100735.75;;;16.61;93.55
75418;BME280;63997;52.112;5.420;2023-07-29T02:42:59;100738.44;;;16.61;93.62
75418;BME280;63997;52.112;5.420;2023-07-29T02:45:26;100736.53;;;16.62;93.49
75418;BME280;63997;52.112;5.420;2023-07-29T02:47:54;100736.53;;;16.62;93.92
75418;BME280;63997;52.112;5.420;2023-07-29T02:50:20;100739.97;;;16.62;94.01
75418;BME280;63997;52.112;5.420;2023-07-29T02:52:47;100732.69;;;16.63;93.97
75418;BME280;63997;52.112;5.420;2023-07-29T02:55:17;100731.56;;;16.64;94.20
75418;BME280;63997;52.112;5.420;2023-07-29T02:57:44;100722.00;;;16.66;94.23
75418;BME280;63997;52.112;5.420;2023-07-29T03:00:12;100732.72;;;16.66;94.07
75418;BME280;63997;52.112;5.420;2023-07-29T03:02:39;100736.22;;;16.67;94.17
75418;BME280;63997;52.112;5.420;2023-07-29T03:05:06;100735.41;;;16.66;93.85
75418;BME280;63997;52.112;5.420;2023-07-29T03:07:32;100730.41;;;16.65;93.90
75418;BME280;63997;52.112;5.420;2023-07-29T03:09:58;100727.72;;;16.65;93.76
75418;BME280;63997;52.112;5.420;2023-07-29T03:12:25;100723.50;;;16.64;93.71
75418;BME280;63997;52.112;5.420;2023-07-29T03:14:52;100724.28;;;16.64;93.71
75418;BME280;63997;52.112;5.420;2023-07-29T03:17:19;100713.13;;;16.62;93.56
75418;BME280;63997;52.112;5.420;2023-07-29T03:19:47;100719.97;;;16.60;93.41
75418;BME280;63997;52.112;5.420;2023-07-29T03:22:16;100710.38;;;16.59;93.33
75418;BME280;63997;52.112;5.420;2023-07-29T03:24:43;100715.03;;;16.62;93.54
75418;BME280;63997;52.112;5.420;2023-07-29T03:27:10;100723.44;;;16.60;93.46
75418;BME280;63997;52.112;5.420;2023-07-29T03:29:36;100723.44;;;16.60;93.47
75418;BME280;63997;52.112;5.420;2023-07-29T03:32:03;100723.44;;;16.60;93.85
75418;BME280;63997;52.112;5.420;2023-07-29T03:34:31;100728.47;;;16.62;93.66
75418;BME280;63997;52.112;5.420;2023-07-29T03:37:00;100726.56;;;16.62;93.51
75418;BME280;63997;52.112;5.420;2023-07-29T03:39:30;100717.72;;;16.62;93.56
75418;BME280;63997;52.112;5.420;2023-07-29T03:41:59;100715.03;;;16.62;93.54
75418;BME280;63997;52.112;5.420;2023-07-29T03:44:29;100715.81;;;16.62;92.92
75418;BME280;63997;52.112;5.420;2023-07-29T03:46:59;100714.28;;;16.61;93.10
75418;BME280;63997;52.112;5.420;2023-07-29T03:49:28;100725.00;;;16.61;93.24
75418;BME280;63997;52.112;5.420;2023-07-29T03:51:56;100724.22;;;16.61;93.06
75418;BME280;63997;52.112;5.420;2023-07-29T03:54:23;100722.66;;;16.60;93.00
75418;BME280;63997;52.112;5.420;2023-07-29T03:56:50;100727.28;;;16.59;93.15
75418;BME280;63997;52.112;5.420;2023-07-29T03:59:20;100731.09;;;16.58;92.96
75418;BME280;63997;52.112;5.420;2023-07-29T04:01:51;100741.84;;;16.58;92.65
75418;BME280;63997;52.112;5.420;2023-07-29T04:04:21;100732.59;;;16.56;93.02
75418;BME280;63997;52.112;5.420;2023-07-29T04:06:49;100724.56;;;16.56;92.92
75418;BME280;63997;52.112;5.420;2023-07-29T04:09:18;100732.59;;;16.56;92.85
75418;BME280;63997;52.112;5.420;2023-07-29T04:11:46;100731.81;;;16.55;92.81
75418;BME280;63997;52.112;5.420;2023-07-29T04:14:13;100735.63;;;16.54;92.73
75418;BME280;63997;52.112;5.420;2023-07-29T04:16:43;100727.19;;;16.52;92.71
75418;BME280;63997;52.112;5.420;2023-07-29T04:19:15;100732.53;;;16.52;92.39
75418;BME280;63997;52.112;5.420;2023-07-29T04:21:41;100721.81;;;16.52;92.04
75418;BME280;63997;52.112;5.420;2023-07-29T04:24:08;100712.22;;;16.51;91.43
75418;BME280;63997;52.112;5.420;2023-07-29T04:26:38;100712.97;;;16.52;91.15
75418;BME280;63997;52.112;5.420;2023-07-29T04:29:06;100708.75;;;16.51;91.19
75418;BME280;63997;52.112;5.420;2023-07-29T04:31:32;100724.09;;;16.50;90.77
75418;BME280;63997;52.112;5.420;2023-07-29T04:33:59;100725.25;;;16.53;90.81
75418;BME280;63997;52.112;5.420;2023-07-29T04:36:26;100724.91;;;16.54;90.81
75418;BME280;63997;52.112;5.420;2023-07-29T04:38:54;100728.72;;;16.53;90.56
75418;BME280;63997;52.112;5.420;2023-07-29T04:41:23;100728.31;;;16.51;90.23
75418;BME280;63997;52.112;5.420;2023-07-29T04:43:50;100728.31;;;16.51;89.74
75418;BME280;63997;52.112;5.420;2023-07-29T04:46:17;100725.63;;;16.51;89.93
75418;BME280;63997;52.112;5.420;2023-07-29T04:48:44;100729.88;;;16.52;89.86
75418;BME280;63997;52.112;5.420;2023-07-29T04:51:10;100726.41;;;16.52;89.56
75418;BME280;63997;52.112;5.420;2023-07-29T04:53:36;100728.31;;;16.51;89.40
75418;BME280;63997;52.112;5.420;2023-07-29T04:56:04;100725.63;;;16.51;89.29
75418;BME280;63997;52.112;5.420;2023-07-29T04:58:31;100732.53;;;16.52;89.47
75418;BME280;63997;52.112;5.420;2023-07-29T05:01:02;100732.53;;;16.52;89.56
75418;BME280;63997;52.112;5.420;2023-07-29T05:03:33;100734.09;;;16.53;89.43
75418;BME280;63997;52.112;5.420;2023-07-29T05:06:01;100733.31;;;16.53;89.56
75418;BME280;63997;52.112;5.420;2023-07-29T05:08:28;100735.69;;;16.58;89.15
75418;BME280;63997;52.112;5.420;2023-07-29T05:10:56;100736.53;;;16.62;89.69
75418;BME280;63997;52.112;5.420;2023-07-29T05:13:25;100742.69;;;16.66;89.55
75418;BME280;63997;52.112;5.420;2023-07-29T05:15:51;100753.09;;;16.67;89.70
75418;BME280;63997;52.112;5.420;2023-07-29T05:18:17;100750.81;;;16.70;89.58
75418;BME280;63997;52.112;5.420;2023-07-29T05:20:44;100740.50;;;16.72;89.57
75418;BME280;63997;52.112;5.420;2023-07-29T05:23:12;100745.53;;;16.73;89.50
75418;BME280;63997;52.112;5.420;2023-07-29T05:25:38;100745.16;;;16.75;89.86
75418;BME280;63997;52.112;5.420;2023-07-29T05:28:04;100747.09;;;16.78;89.59
75418;BME280;63997;52.112;5.420;2023-07-29T05:30:32;100742.16;;;16.80;89.69
75418;BME280;63997;52.112;5.420;2023-07-29T05:33:00;100743.34;;;16.82;89.50
75418;BME280;63997;52.112;5.420;2023-07-29T05:35:30;100747.63;;;16.87;89.31
75418;BME280;63997;52.112;5.420;2023-07-29T05:37:56;100746.91;;;16.90;89.29
75418;BME280;63997;52.112;5.420;2023-07-29T05:40:23;100756.53;;;16.95;89.23
75418;BME280;63997;52.112;5.420;2023-07-29T05:42:53;100763.19;;;17.01;89.05
75418;BME280;63997;52.112;5.420;2023-07-29T05:45:22;100766.72;;;17.08;89.17
75418;BME280;63997;52.112;5.420;2023-07-29T05:47:50;100767.16;;;17.14;89.44
75418;BME280;63997;52.112;5.420;2023-07-29T05:50:18;100766.09;;;17.18;88.93
75418;BME280;63997;52.112;5.420;2023-07-29T05:52:48;100761.09;;;17.21;88.88
75418;BME280;63997;52.112;5.420;2023-07-29T05:55:17;100772.31;;;17.26;88.85
75418;BME280;63997;52.112;5.420;2023-07-29T05:57:48;100768.13;;;17.29;88.59
75418;BME280;63997;52.112;5.420;2023-07-29T06:00:17;100760.50;;;17.34;88.42
75418;BME280;63997;52.112;5.420;2023-07-29T06:02:43;100758.28;;;17.40;88.61
75418;BME280;63997;52.112;5.420;2023-07-29T06:05:10;100764.81;;;17.42;88.84
75418;BME280;63997;52.112;5.420;2023-07-29T06:07:38;100765.28;;;17.48;88.25
75418;BME280;63997;52.112;5.420;2023-07-29T06:10:06;100761.84;;;17.51;88.00
75418;BME280;63997;52.112;5.420;2023-07-29T06:12:35;100763.78;;;17.54;88.02
75418;BME280;63997;52.112;5.420;2023-07-29T06:15:02;100756.22;;;17.67;88.19
75418;BME280;63997;52.112;5.420;2023-07-29T06:17:28;100751.81;;;17.82;87.62
75418;BME280;63997;52.112;5.420;2023-07-29T06:19:54;100748.22;;;18.08;87.22
75418;BME280;63997;52.112;5.420;2023-07-29T06:22:21;100752.19;;;18.24;86.82
75418;BME280;63997;52.112;5.420;2023-07-29T06:24:47;100746.69;;;18.65;85.55
75418;BME280;63997;52.112;5.420;2023-07-29T06:27:14;100751.47;;;18.90;84.50
75418;BME280;63997;52.112;5.420;2023-07-29T06:29:40;100746.47;;;18.95;84.52
75418;BME280;63997;52.112;5.420;2023-07-29T06:32:07;100760.34;;;18.94;83.76
75418;BME280;63997;52.112;5.420;2023-07-29T06:34:34;100761.09;;;18.87;84.14
75418;BME280;63997;52.112;5.420;2023-07-29T06:37:01;100756.09;;;18.89;83.42
75418;BME280;63997;52.112;5.420;2023-07-29T06:39:27;100754.97;;;19.01;83.25
75418;BME280;63997;52.112;5.420;2023-07-29T06:41:53;100758.91;;;19.14;83.00
75418;BME280;63997;52.112;5.420;2023-07-29T06:44:21;100752.78;;;19.28;82.62
75418;BME280;63997;52.112;5.420;2023-07-29T06:46:50;100765.13;;;19.25;82.08
75418;BME280;63997;52.112;5.420;2023-07-29T06:49:16;100773.50;;;19.13;82.86
75418;BME280;63997;52.112;5.420;2023-07-29T06:51:44;100767.31;;;19.06;83.17
75418;BME280;63997;52.112;5.420;2023-07-29T06:54:13;100765.50;;;19.27;82.77
75418;BME280;63997;52.112;5.420;2023-07-29T06:56:40;100769.03;;;19.42;82.95
75418;BME280;63997;52.112;5.420;2023-07-29T06:59:06;100765.16;;;19.47;83.48
75418;BME280;63997;52.112;5.420;2023-07-29T07:01:34;100770.19;;;19.48;82.53
75418;BME280;63997;52.112;5.420;2023-07-29T07:04:05;100772.84;;;19.31;82.14
75418;BME280;63997;52.112;5.420;2023-07-29T07:06:33;100774.72;;;19.19;83.24
75418;BME280;63997;52.112;5.420;2023-07-29T07:09:00;100769.72;;;19.21;82.80
75418;BME280;63997;52.112;5.420;2023-07-29T07:11:27;100774.31;;;19.17;82.33
75418;BME280;63997;52.112;5.420;2023-07-29T07:13:56;100770.44;;;19.11;83.40
75418;BME280;63997;52.112;5.420;2023-07-29T07:16:25;100773.91;;;19.08;83.34
75418;BME280;63997;52.112;5.420;2023-07-29T07:18:52;100769.22;;;19.01;82.80
75418;BME280;63997;52.112;5.420;2023-07-29T07:21:18;100778.81;;;18.92;83.71
75418;BME280;63997;52.112;5.420;2023-07-29T07:23:45;100778.06;;;18.91;84.02
75418;BME280;63997;52.112;5.420;2023-07-29T07:26:12;100781.09;;;18.90;83.45
75418;BME280;63997;52.112;5.420;2023-07-29T07:28:39;100785.72;;;18.86;84.01
75418;BME280;63997;52.112;5.420;2023-07-29T07:31:05;100785.72;;;18.86;84.31
75418;BME280;63997;52.112;5.420;2023-07-29T07:33:32;100788.44;;;18.93;84.49
75418;BME280;63997;52.112;5.420;2023-07-29T07:35:58;100782.72;;;18.98;84.62
75418;BME280;63997;52.112;5.420;2023-07-29T07:38:25;100783.09;;;19.00;84.32
75418;BME280;63997;52.112;5.420;2023-07-29T07:40:55;100780.00;;;18.98;83.82
75418;BME280;63997;52.112;5.420;2023-07-29T07:43:24;100786.94;;;18.99;84.05
75418;BME280;63997;52.112;5.420;2023-07-29T07:46:02;100791.94;;;19.00;84.22
75418;BME280;63997;52.112;5.420;2023-07-29T07:48:29;100782.75;;;19.09;84.73
75418;BME280;63997;52.112;5.420;2023-07-29T07:50:57;100783.19;;;19.21;83.54
75418;BME280;63997;52.112;5.420;2023-07-29T07:53:27;100782.06;;;19.29;83.23
75418;BME280;63997;52.112;5.420;2023-07-29T07:55:55;100787.47;;;19.33;83.24
75418;BME280;63997;52.112;5.420;2023-07-29T07:58:24;100785.56;;;19.41;84.55
75418;BME280;63997;52.112;5.420;2023-07-29T08:01:09;100782.13;;;19.44;83.17
75418;BME280;63997;52.112;5.420;2023-07-29T08:03:36;100794.06;;;19.43;83.25
75418;BME280;63997;52.112;5.420;2023-07-29T08:06:05;100796.00;;;19.42;82.70
75418;BME280;63997;52.112;5.420;2023-07-29T08:08:36;100794.47;;;19.52;82.80
75418;BME280;63997;52.112;5.420;2023-07-29T08:11:04;100795.34;;;19.70;83.10
75418;BME280;63997;52.112;5.420;2023-07-29T08:13:32;100790.78;;;20.21;82.87
75418;BME280;63997;52.112;5.420;2023-07-29T08:16:01;100794.66;;;20.48;81.37
75418;BME280;63997;52.112;5.420;2023-07-29T08:18:30;100791.94;;;20.66;80.83
75418;BME280;63997;52.112;5.420;2023-07-29T08:20:59;100786.13;;;20.64;80.06
75418;BME280;63997;52.112;5.420;2023-07-29T08:23:29;100793.47;;;20.71;79.25
75418;BME280;63997;52.112;5.420;2023-07-29T08:26:01;100789.22;;;20.77;79.25
75418;BME280;63997;52.112;5.420;2023-07-29T08:28:32;100789.19;;;20.84;79.43
75418;BME280;63997;52.112;5.420;2023-07-29T08:31:01;100789.19;;;20.70;78.05
75418;BME280;63997;52.112;5.420;2023-07-29T08:33:28;100788.09;;;20.49;77.75
75418;BME280;63997;52.112;5.420;2023-07-29T08:35:55;100793.06;;;20.40;78.33
75418;BME280;63997;52.112;5.420;2023-07-29T08:38:21;100797.72;;;20.32;78.64
75418;BME280;63997;52.112;5.420;2023-07-29T08:40:59;100786.91;;;20.18;78.54
75418;BME280;63997;52.112;5.420;2023-07-29T08:43:29;100793.44;;;20.14;79.48
75418;BME280;63997;52.112;5.420;2023-07-29T08:45:58;100794.22;;;20.18;80.11
75418;BME280;63997;52.112;5.420;2023-07-29T08:48:40;100791.53;;;20.28;78.82
75418;BME280;63997;52.112;5.420;2023-07-29T08:51:09;100791.91;;;20.30;79.65
75418;BME280;63997;52.112;5.420;2023-07-29T08:53:38;100795.38;;;20.31;78.60
75418;BME280;63997;52.112;5.420;2023-07-29T08:56:07;100795.41;;;20.27;78.23
75418;BME280;63997;52.112;5.420;2023-07-29T08:58:34;100791.16;;;20.23;78.52
75418;BME280;63997;52.112;5.420;2023-07-29T09:01:01;100800.41;;;20.18;78.58
75418;BME280;63997;52.112;5.420;2023-07-29T09:03:28;100793.84;;;20.12;78.00
75418;BME280;63997;52.112;5.420;2023-07-29T09:05:55;100790.38;;;20.08;79.29
75418;BME280;63997;52.112;5.420;2023-07-29T09:08:26;100797.69;;;20.07;78.61
75418;BME280;63997;52.112;5.420;2023-07-29T09:10:54;100803.06;;;19.97;78.18
75418;BME280;63997;52.112;5.420;2023-07-29T09:13:21;100804.66;;;20.05;79.40
75418;BME280;63997;52.112;5.420;2023-07-29T09:15:49;100801.59;;;20.31;78.71
75418;BME280;63997;52.112;5.420;2023-07-29T09:18:19;100786.91;;;20.47;78.51
75418;BME280;63997;52.112;5.420;2023-07-29T09:20:47;100796.53;;;20.41;77.11
75418;BME280;63997;52.112;5.420;2023-07-29T09:23:14;100793.09;;;20.44;78.97
75418;BME280;63997;52.112;5.420;2023-07-29T09:25:40;100793.84;;;20.62;78.55
75418;BME280;63997;52.112;5.420;2023-07-29T09:28:09;100803.47;;;20.84;76.48
75418;BME280;63997;52.112;5.420;2023-07-29T09:30:41;100791.84;;;21.05;75.51
75418;BME280;63997;52.112;5.420;2023-07-29T09:33:09;100790.28;;;21.01;76.81
75418;BME280;63997;52.112;5.420;2023-07-29T09:35:36;100792.63;;;20.92;77.07
75418;BME280;63997;52.112;5.420;2023-07-29T09:38:07;100786.47;;;20.80;75.37
75418;BME280;63997;52.112;5.420;2023-07-29T09:40:38;100791.53;;;20.82;76.17
75418;BME280;63997;52.112;5.420;2023-07-29T09:43:06;100794.56;;;20.95;76.86
75418;BME280;63997;52.112;5.420;2023-07-29T09:45:34;100791.44;;;21.10;77.45
75418;BME280;63997;52.112;5.420;2023-07-29T09:48:02;100795.66;;;21.11;76.26
75418;BME280;63997;52.112;5.420;2023-07-29T09:50:29;100792.22;;;21.00;76.60
75418;BME280;63997;52.112;5.420;2023-07-29T09:52:56;100792.66;;;20.84;75.87
75418;BME280;63997;52.112;5.420;2023-07-29T09:55:26;100797.72;;;20.68;75.55
75418;BME280;63997;52.112;5.420;2023-07-29T09:57:57;100806.22;;;20.49;75.03
75418;BME280;63997;52.112;5.420;2023-07-29T10:00:31;100800.78;;;20.34;76.91
75418;BME280;63997;52.112;5.420;2023-07-29T10:02:58;100809.66;;;20.24;79.30
75418;BME280;63997;52.112;5.420;2023-07-29T10:05:26;100812.38;;;20.10;81.19
75418;BME280;63997;52.112;5.420;2023-07-29T10:07:54;100808.09;;;20.02;81.15
75418;BME280;63997;52.112;5.420;2023-07-29T10:10:21;100812.72;;;19.91;82.63
75418;BME280;63997;52.112;5.420;2023-07-29T10:12:51;100809.25;;;19.83;83.04
75418;BME280;63997;52.112;5.420;2023-07-29T10:15:20;100810.00;;;19.76;83.84
75418;BME280;63997;52.112;5.420;2023-07-29T10:17:46;100806.91;;;19.78;85.76
75418;BME280;63997;52.112;5.420;2023-07-29T10:20:15;100813.09;;;19.86;84.84
75418;BME280;63997;52.112;5.420;2023-07-29T10:22:43;100808.09;;;19.91;85.35
75418;BME280;63997;52.112;5.420;2023-07-29T10:25:14;100811.59;;;19.99;85.26
75418;BME280;63997;52.112;5.420;2023-07-29T10:27:53;100818.53;;;20.00;85.19
75418;BME280;63997;52.112;5.420;2023-07-29T10:30:24;100820.81;;;19.94;85.04
75418;BME280;63997;52.112;5.420;2023-07-29T10:32:54;100825.44;;;19.90;84.99
75418;BME280;63997;52.112;5.420;2023-07-29T10:35:24;100817.75;;;19.96;85.81
75418;BME280;63997;52.112;5.420;2023-07-29T10:37:51;100813.13;;;20.07;86.37
75418;BME280;63997;52.112;5.420;2023-07-29T10:40:19;100817.78;;;20.28;86.16
75418;BME280;63997;52.112;5.420;2023-07-29T10:43:03;100823.94;;;20.28;84.31
75418;BME280;63997;52.112;5.420;2023-07-29T10:45:37;100815.47;;;20.26;85.37
75418;BME280;63997;52.112;5.420;2023-07-29T10:48:12;100817.00;;;20.27;86.63
75418;BME280;63997;52.112;5.420;2023-07-29T10:50:39;100817.00;;;20.24;85.25
75418;BME280;63997;52.112;5.420;2023-07-29T10:53:05;100804.28;;;20.21;84.93
75418;BME280;63997;52.112;5.420;2023-07-29T10:55:34;100809.28;;;20.22;86.12
75418;BME280;63997;52.112;5.420;2023-07-29T10:58:06;100813.91;;;20.18;85.12
75418;BME280;63997;52.112;5.420;2023-07-29T11:00:33;100808.91;;;20.20;84.31
75418;BME280;63997;52.112;5.420;2023-07-29T11:03:02;100810.81;;;20.23;84.38
75418;BME280;63997;52.112;5.420;2023-07-29T11:05:50;100809.69;;;20.28;83.89
75418;BME280;63997;52.112;5.420;2023-07-29T11:08:30;100817.78;;;20.39;83.72
75418;BME280;63997;52.112;5.420;2023-07-29T11:13:28;100825.50;;;20.44;82.81
75418;BME280;63997;52.112;5.420;2023-07-29T11:15:57;100820.09;;;20.44;82.85
75418;BME280;63997;52.112;5.420;2023-07-29T11:18:33;100826.66;;;20.43;81.80
75418;BME280;63997;52.112;5.420;2023-07-29T11:21:03;100828.59;;;20.39;82.61
75418;BME280;63997;52.112;5.420;2023-07-29T11:23:34;100840.16;;;20.39;82.88
75418;BME280;63997;52.112;5.420;2023-07-29T11:26:02;100829.34;;;20.35;83.23
75418;BME280;63997;52.112;5.420;2023-07-29T11:28:29;100830.09;;;20.25;83.33
75418;BME280;63997;52.112;5.420;2023-07-29T11:30:56;100828.56;;;20.24;83.93
75418;BME280;63997;52.112;5.420;2023-07-29T11:33:27;100823.94;;;20.18;84.64
75418;BME280;63997;52.112;5.420;2023-07-29T11:35:55;100825.47;;;20.12;84.31
75418;BME280;63997;52.112;5.420;2023-07-29T11:38:22;100828.19;;;20.12;84.76
75418;BME280;63997;52.112;5.420;2023-07-29T11:40:59;100826.63;;;20.03;84.21
75418;BME280;63997;52.112;5.420;2023-07-29T11:43:26;100822.75;;;19.97;84.20
75418;BME280;63997;52.112;5.420;2023-07-29T11:45:53;100827.75;;;19.92;84.69
75418;BME280;63997;52.112;5.420;2023-07-29T11:48:33;100831.59;;;19.91;84.73
75418;BME280;63997;52.112;5.420;2023-07-29T11:51:02;100825.84;;;19.89;84.54
75418;BME280;63997;52.112;5.420;2023-07-29T11:53:30;100823.50;;;19.91;85.91
75418;BME280;63997;52.112;5.420;2023-07-29T11:55:57;100830.06;;;19.97;85.90
75418;BME280;63997;52.112;5.420;2023-07-29T11:58:24;100835.88;;;19.99;86.43
75418;BME280;63997;52.112;5.420;2023-07-29T12:00:51;100833.94;;;19.96;86.14
75418;BME280;63997;52.112;5.420;2023-07-29T12:03:18;100835.13;;;19.98;86.28
75418;BME280;63997;52.112;5.420;2023-07-29T12:05:45;100833.22;;;20.20;86.57
75418;BME280;63997;52.112;5.420;2023-07-29T12:08:12;100833.59;;;20.44;87.34
75418;BME280;63997;52.112;5.420;2023-07-29T12:10:39;100829.00;;;20.66;86.42
75418;BME280;63997;52.112;5.420;2023-07-29T12:13:07;100825.09;;;20.84;85.70
75418;BME280;63997;52.112;5.420;2023-07-29T12:15:38;100817.75;;;20.99;85.77
75418;BME280;63997;52.112;5.420;2023-07-29T12:18:05;100817.28;;;21.22;84.29
75418;BME280;63997;52.112;5.420;2023-07-29T12:20:31;100828.47;;;21.35;82.33
75418;BME280;63997;52.112;5.420;2023-07-29T12:22:59;100814.50;;;21.44;82.88
75418;BME280;63997;52.112;5.420;2023-07-29T12:25:28;100819.88;;;21.51;82.26
75418;BME280;63997;52.112;5.420;2023-07-29T12:27:55;100817.16;;;21.58;79.00
75418;BME280;63997;52.112;5.420;2023-07-29T12:30:22;100814.00;;;21.67;80.17
75418;BME280;63997;52.112;5.420;2023-07-29T12:32:48;100817.13;;;21.61;79.13
75418;BME280;63997;52.112;5.420;2023-07-29T12:35:15;100808.63;;;21.63;78.91
75418;BME280;63997;52.112;5.420;2023-07-29T12:37:42;100810.81;;;21.82;80.84
75418;BME280;63997;52.112;5.420;2023-07-29T12:40:29;100824.34;;;21.82;79.00
75418;BME280;63997;52.112;5.420;2023-07-29T12:42:56;100818.19;;;21.78;78.33
75418;BME280;63997;52.112;5.420;2023-07-29T12:45:22;100812.06;;;21.67;77.37
75418;BME280;63997;52.112;5.420;2023-07-29T12:47:52;100810.56;;;21.59;79.37
75418;BME280;63997;52.112;5.420;2023-07-29T12:50:19;100818.34;;;21.50;79.17
75418;BME280;63997;52.112;5.420;2023-07-29T12:52:45;100821.84;;;21.47;79.31
75418;BME280;63997;52.112;5.420;2023-07-29T12:55:12;100826.84;;;21.55;79.47
75418;BME280;63997;52.112;5.420;2023-07-29T12:57:42;100830.13;;;21.88;79.24
75418;BME280;63997;52.112;5.420;2023-07-29T13:00:10;100816.91;;;21.97;77.95
75418;BME280;63997;52.112;5.420;2023-07-29T13:02:37;100812.97;;;22.05;78.28
75418;BME280;63997;52.112;5.420;2023-07-29T13:05:04;100812.69;;;22.44;77.64